sensor_id;sensor_type;location;lat;lon;timestamp;temperature;humidity
2893;DHT22;1456;51.840;12.184;2024-01-15T00:01:46;1.50;99.90
2893;DHT22;1456;51.840;12.184;2024-01-15T00:04:12;1.60;99.90
2893;DHT22;1456;51.840;12.184;2024-01-15T00:06:37;1.60;99.90
2893;DHT22;1456;51.840;12.184;2024-01-15T00:09:03;1.60;99.90
2893;DHT22;1456;51.840;12.184;2024-01-15T00:11:28;1.60;99.90
2893;DHT22;1456;51.840;12.184;2024-01-15T00:13:54;1.60;99.90
2893;DHT22;1456;51.840;12.184;2024-01-15T00:16:20;1.70;99.90
2893;DHT22;1456;51.840;12.184;2024-01-15T00:18:45;1.60;99.90
2893;DHT22;1456;51.840;12.184;2024-01-15T00:21:11;1.60;99.90
2893;DHT22;1456;51.840;12.184;2024-01-15T00:23:37;1.70;99.90
2893;DHT22;1456;51.840;12.184;2024-01-15T00:26:02;1.90;99.90
2893;DHT22;1456;51.840;12.184;2024-01-15T00:28:28;1.80;99.90
2893;DHT22;1456;51.840;12.184;2024-01-15T00:30:53;1.80;99.90
2893;DHT22;1456;51.840;12.184;2024-01-15T00:33:19;1.80;99.90
2893;DHT22;1456;51.840;12.184;2024-01-15T00:35:45;1.80;99.90
2893;DHT22;1456;51.840;12.184;2024-01-15T00:38:10;1.80;99.90
2893;DHT22;1456;51.840;12.184;2024-01-15T00:40:36;1.80;99.90
2893;DHT22;1456;51.840;12.184;2024-01-15T00:43:03;1.80;99.90
2893;DHT22;1456;51.840;12.184;2024-01-15T00:45:28;1.70;99.90
2893;DHT22;1456;51.840;12.184;2024-01-15T00:47:54;1.70;99.90
2893;DHT22;1456;51.840;12.184;2024-01-15T00:50:21;1.80;99.90
2893;DHT22;1456;51.840;12.184;2024-01-15T00:52:47;1.80;99.90
2893;DHT22;1456;51.840;12.184;2024-01-15T00:55:13;1.80;99.90
2893;DHT22;1456;51.840;12.184;2024-01-15T00:57:39;1.80;99.90
2893;DHT22;1456;51.840;12.184;2024-01-15T01:00:05;1.80;99.90
2893;DHT22;1456;51.840;12.184;2024-01-15T01:02:31;1.80;99.90
2893;DHT22;1456;51.840;12.184;2024-01-15T01:04:57;1.80;99.90
2893;DHT22;1456;51.840;12.184;2024-01-15T01:07:23;1.70;99.90
2893;DHT22;1456;51.840;12.184;2024-01-15T01:09:48;1.70;99.90
2893;DHT22;1456;51.840;12.184;2024-01-15T01:12:14;1.70;99.90
2893;DHT22;1456;51.840;12.184;2024-01-15T01:14:40;1.70;99.90
2893;DHT22;1456;51.840;12.184;2024-01-15T01:17:06;1.90;99.90
2893;DHT22;1456;51.840;12.184;2024-01-15T01:19:31;1.80;99.90
2893;DHT22;1456;51.840;12.184;2024-01-15T01:21:58;1.80;99.90
2893;DHT22;1456;51.840;12.184;2024-01-15T01:24:23;1.90;99.90
2893;DHT22;1456;51.840;12.184;2024-01-15T01:26:49;1.80;99.90
2893;DHT22;1456;51.840;12.184;2024-01-15T01:29:15;1.70;99.90
2893;DHT22;1456;51.840;12.184;2024-01-15T01:31:44;1.70;99.90
2893;DHT22;1456;51.840;12.184;2024-01-15T01:34:10;1.70;99.90
2893;DHT22;1456;51.840;12.184;2024-01-15T01:36:36;1.70;99.90
2893;DHT22;1456;51.840;12.184;2024-01-15T01:39:03;1.70;99.90
2893;DHT22;1456;51.840;12.184;2024-01-15T01:41:28;1.70;99.90
2893;DHT22;1456;51.840;12.184;2024-01-15T01:43:54;1.70;99.90
2893;DHT22;1456;51.840;12.184;2024-01-15T01:46:20;1.80;99.90
2893;DHT22;1456;51.840;12.184;2024-01-15T01:48:46;1.70;99.90
2893;DHT22;1456;51.840;12.184;2024-01-15T01:51:14;1.70;99.90
2893;DHT22;1456;51.840;12.184;2024-01-15T01:53:40;1.80;99.90
2893;DHT22;1456;51.840;12.184;2024-01-15T01:56:06;1.70;99.90
2893;DHT22;1456;51.840;12.184;2024-01-15T01:58:33;1.90;99.90
2893;DHT22;1456;51.840;12.184;2024-01-15T02:00:59;1.80;99.90
2893;DHT22;1456;51.840;12.184;2024-01-15T02:03:26;1.90;99.90
2893;DHT22;1456;51.840;12.184;2024-01-15T02:05:52;1.90;99.90
2893;DHT22;1456;51.840;12.184;2024-01-15T02:08:19;1.90;99.90
2893;DHT22;1456;51.840;12.184;2024-01-15T02:10:44;1.90;99.90
2893;DHT22;1456;51.840;12.184;2024-01-15T02:13:10;1.90;99.90
2893;DHT22;1456;51.840;12.184;2024-01-15T02:15:36;2.00;99.90
2893;DHT22;1456;51.840;12.184;2024-01-15T02:18:03;1.90;99.90
2893;DHT22;1456;51.840;12.184;2024-01-15T02:20:30;1.90;99.90
2893;DHT22;1456;51.840;12.184;2024-01-15T02:23:15;1.80;99.90
2893;DHT22;1456;51.840;12.184;2024-01-15T02:25:46;1.80;99.90
2893;DHT22;1456;51.840;12.184;2024-01-15T02:28:13;1.80;99.90
2893;DHT22;1456;51.840;12.184;2024-01-15T02:30:40;1.90;99.90
2893;DHT22;1456;51.840;12.184;2024-01-15T02:33:10;1.90;99.90
2893;DHT22;1456;51.840;12.184;2024-01-15T02:35:36;1.90;99.90
2893;DHT22;1456;51.840;12.184;2024-01-15T02:38:03;1.90;99.90
2893;DHT22;1456;51.840;12.184;2024-01-15T02:40:29;1.80;99.90
2893;DHT22;1456;51.840;12.184;2024-01-15T02:42:55;1.70;99.90
2893;DHT22;1456;51.840;12.184;2024-01-15T02:45:21;1.70;99.90
2893;DHT22;1456;51.840;12.184;2024-01-15T02:47:47;1.70;99.90
2893;DHT22;1456;51.840;12.184;2024-01-15T02:50:13;1.70;99.90
2893;DHT22;1456;51.840;12.184;2024-01-15T02:52:39;1.70;99.90
2893;DHT22;1456;51.840;12.184;2024-01-15T02:55:05;1.70;99.90
2893;DHT22;1456;51.840;12.184;2024-01-15T02:57:30;1.80;99.90
2893;DHT22;1456;51.840;12.184;2024-01-15T02:59:56;1.80;99.90
2893;DHT22;1456;51.840;12.184;2024-01-15T03:02:22;1.80;99.90
2893;DHT22;1456;51.840;12.184;2024-01-15T03:04:47;1.80;99.90
2893;DHT22;1456;51.840;12.184;2024-01-15T03:07:13;1.70;99.90
2893;DHT22;1456;51.840;12.184;2024-01-15T03:09:39;1.70;99.90
2893;DHT22;1456;51.840;12.184;2024-01-15T03:12:04;1.70;99.90
2893;DHT22;1456;51.840;12.184;2024-01-15T03:14:31;1.40;99.90
2893;DHT22;1456;51.840;12.184;2024-01-15T03:16:56;1.30;99.90
2893;DHT22;1456;51.840;12.184;2024-01-15T03:19:22;1.40;99.90
2893;DHT22;1456;51.840;12.184;2024-01-15T03:21:48;1.30;99.90
2893;DHT22;1456;51.840;12.184;2024-01-15T03:24:13;1.30;99.90
2893;DHT22;1456;51.840;12.184;2024-01-15T03:26:39;1.20;99.90
2893;DHT22;1456;51.840;12.184;2024-01-15T03:29:05;1.20;99.90
2893;DHT22;1456;51.840;12.184;2024-01-15T03:31:31;1.20;99.90
2893;DHT22;1456;51.840;12.184;2024-01-15T03:33:57;1.10;99.90
2893;DHT22;1456;51.840;12.184;2024-01-15T03:36:23;1.10;99.90
2893;DHT22;1456;51.840;12.184;2024-01-15T03:38:48;1.20;99.90
2893;DHT22;1456;51.840;12.184;2024-01-15T03:41:14;1.20;99.90
2893;DHT22;1456;51.840;12.184;2024-01-15T03:43:40;1.20;99.90
2893;DHT22;1456;51.840;12.184;2024-01-15T03:46:05;1.30;99.90
2893;DHT22;1456;51.840;12.184;2024-01-15T03:48:32;1.30;99.90
2893;DHT22;1456;51.840;12.184;2024-01-15T03:50:57;1.40;99.90
2893;DHT22;1456;51.840;12.184;2024-01-15T03:53:23;1.40;99.90
2893;DHT22;1456;51.840;12.184;2024-01-15T03:55:49;1.40;99.90
2893;DHT22;1456;51.840;12.184;2024-01-15T03:58:15;1.40;99.90
2893;DHT22;1456;51.840;12.184;2024-01-15T04:00:42;1.50;99.90
2893;DHT22;1456;51.840;12.184;2024-01-15T04:03:08;1.60;99.90
2893;DHT22;1456;51.840;12.184;2024-01-15T04:05:33;1.60;99.90
2893;DHT22;1456;51.840;12.184;2024-01-15T04:07:59;1.60;99.90
2893;DHT22;1456;51.840;12.184;2024-01-15T04:10:25;1.60;99.90
2893;DHT22;1456;51.840;12.184;2024-01-15T04:12:50;1.60;99.90
2893;DHT22;1456;51.840;12.184;2024-01-15T04:15:16;1.70;99.90
2893;DHT22;1456;51.840;12.184;2024-01-15T04:17:42;1.70;99.90
2893;DHT22;1456;51.840;12.184;2024-01-15T04:20:08;1.60;99.90
2893;DHT22;1456;51.840;12.184;2024-01-15T04:22:37;1.50;99.90
2893;DHT22;1456;51.840;12.184;2024-01-15T04:25:03;1.50;99.90
2893;DHT22;1456;51.840;12.184;2024-01-15T04:27:29;1.40;99.90
2893;DHT22;1456;51.840;12.184;2024-01-15T04:29:55;1.40;99.90
2893;DHT22;1456;51.840;12.184;2024-01-15T04:32:20;1.40;99.90
2893;DHT22;1456;51.840;12.184;2024-01-15T04:34:46;1.40;99.90
2893;DHT22;1456;51.840;12.184;2024-01-15T04:37:13;1.40;99.90
2893;DHT22;1456;51.840;12.184;2024-01-15T04:39:38;1.40;99.90
2893;DHT22;1456;51.840;12.184;2024-01-15T04:42:04;1.40;99.90
2893;DHT22;1456;51.840;12.184;2024-01-15T04:44:30;1.30;99.90
2893;DHT22;1456;51.840;12.184;2024-01-15T04:46:55;1.30;99.90
2893;DHT22;1456;51.840;12.184;2024-01-15T04:49:21;1.30;99.90
2893;DHT22;1456;51.840;12.184;2024-01-15T04:51:47;1.30;99.90
2893;DHT22;1456;51.840;12.184;2024-01-15T04:54:12;1.30;99.90
2893;DHT22;1456;51.840;12.184;2024-01-15T04:56:38;1.30;99.90
2893;DHT22;1456;51.840;12.184;2024-01-15T04:59:04;1.30;99.90
2893;DHT22;1456;51.840;12.184;2024-01-15T05:01:32;1.30;99.90
2893;DHT22;1456;51.840;12.184;2024-01-15T05:03:59;1.30;99.90
2893;DHT22;1456;51.840;12.184;2024-01-15T05:06:24;1.50;99.90
2893;DHT22;1456;51.840;12.184;2024-01-15T05:08:50;1.40;99.90
2893;DHT22;1456;51.840;12.184;2024-01-15T05:11:16;1.40;99.90
2893;DHT22;1456;51.840;12.184;2024-01-15T05:13:41;1.40;99.90
2893;DHT22;1456;51.840;12.184;2024-01-15T05:16:07;1.60;99.90
2893;DHT22;1456;51.840;12.184;2024-01-15T05:18:33;1.40;99.90
2893;DHT22;1456;51.840;12.184;2024-01-15T05:20:59;1.40;99.90
2893;DHT22;1456;51.840;12.184;2024-01-15T05:23:24;1.40;99.90
2893;DHT22;1456;51.840;12.184;2024-01-15T05:25:50;1.30;99.90
2893;DHT22;1456;51.840;12.184;2024-01-15T05:28:16;1.30;99.90
2893;DHT22;1456;51.840;12.184;2024-01-15T05:30:42;1.30;99.90
2893;DHT22;1456;51.840;12.184;2024-01-15T05:33:07;1.30;99.90
2893;DHT22;1456;51.840;12.184;2024-01-15T05:35:34;1.30;99.90
2893;DHT22;1456;51.840;12.184;2024-01-15T05:37:59;1.30;99.90
2893;DHT22;1456;51.840;12.184;2024-01-15T05:40:25;1.40;99.90
2893;DHT22;1456;51.840;12.184;2024-01-15T05:42:51;1.40;99.90
2893;DHT22;1456;51.840;12.184;2024-01-15T05:45:16;1.40;99.90
2893;DHT22;1456;51.840;12.184;2024-01-15T05:47:42;1.50;99.90
2893;DHT22;1456;51.840;12.184;2024-01-15T05:50:09;1.50;99.90
2893;DHT22;1456;51.840;12.184;2024-01-15T05:52:35;1.50;99.90
2893;DHT22;1456;51.840;12.184;2024-01-15T05:55:01;1.60;99.90
2893;DHT22;1456;51.840;12.184;2024-01-15T05:57:26;1.70;99.90
2893;DHT22;1456;51.840;12.184;2024-01-15T05:59:53;1.70;99.90
2893;DHT22;1456;51.840;12.184;2024-01-15T06:02:18;1.80;99.90
2893;DHT22;1456;51.840;12.184;2024-01-15T06:04:44;1.90;99.90
2893;DHT22;1456;51.840;12.184;2024-01-15T06:07:10;1.90;99.90
2893;DHT22;1456;51.840;12.184;2024-01-15T06:09:35;1.90;99.90
2893;DHT22;1456;51.840;12.184;2024-01-15T06:12:01;1.90;99.90
2893;DHT22;1456;51.840;12.184;2024-01-15T06:14:27;1.90;99.90
2893;DHT22;1456;51.840;12.184;2024-01-15T06:16:53;2.00;99.90
2893;DHT22;1456;51.840;12.184;2024-01-15T06:19:18;2.00;99.90
2893;DHT22;1456;51.840;12.184;2024-01-15T06:21:44;2.00;99.90
2893;DHT22;1456;51.840;12.184;2024-01-15T06:24:09;2.00;99.90
2893;DHT22;1456;51.840;12.184;2024-01-15T06:26:35;2.00;99.90
2893;DHT22;1456;51.840;12.184;2024-01-15T06:29:01;1.90;99.90
2893;DHT22;1456;51.840;12.184;2024-01-15T06:31:28;1.90;99.90
2893;DHT22;1456;51.840;12.184;2024-01-15T06:33:55;1.90;99.90
2893;DHT22;1456;51.840;12.184;2024-01-15T06:36:20;1.90;99.90
2893;DHT22;1456;51.840;12.184;2024-01-15T06:38:46;2.00;99.90
2893;DHT22;1456;51.840;12.184;2024-01-15T06:41:11;1.90;99.90
2893;DHT22;1456;51.840;12.184;2024-01-15T06:43:37;1.90;99.90
2893;DHT22;1456;51.840;12.184;2024-01-15T06:46:03;1.90;99.90
2893;DHT22;1456;51.840;12.184;2024-01-15T06:48:28;1.90;99.90
2893;DHT22;1456;51.840;12.184;2024-01-15T06:50:54;1.90;99.90
2893;DHT22;1456;51.840;12.184;2024-01-15T06:53:20;1.90;99.90
2893;DHT22;1456;51.840;12.184;2024-01-15T06:55:46;1.90;99.90
2893;DHT22;1456;51.840;12.184;2024-01-15T06:58:12;2.00;99.90
2893;DHT22;1456;51.840;12.184;2024-01-15T07:00:37;2.00;99.90
2893;DHT22;1456;51.840;12.184;2024-01-15T07:03:03;2.00;99.90
2893;DHT22;1456;51.840;12.184;2024-01-15T07:05:29;2.00;99.90
2893;DHT22;1456;51.840;12.184;2024-01-15T07:07:56;2.00;99.90
2893;DHT22;1456;51.840;12.184;2024-01-15T07:10:21;2.10;99.90
2893;DHT22;1456;51.840;12.184;2024-01-15T07:12:47;2.00;99.90
2893;DHT22;1456;51.840;12.184;2024-01-15T07:15:13;2.00;99.90
2893;DHT22;1456;51.840;12.184;2024-01-15T07:17:39;1.90;99.90
2893;DHT22;1456;51.840;12.184;2024-01-15T07:20:09;1.90;99.90
2893;DHT22;1456;51.840;12.184;2024-01-15T07:22:38;1.90;99.90
2893;DHT22;1456;51.840;12.184;2024-01-15T07:25:04;1.90;99.90
2893;DHT22;1456;51.840;12.184;2024-01-15T07:27:31;1.90;99.90
2893;DHT22;1456;51.840;12.184;2024-01-15T07:29:57;1.90;99.90
2893;DHT22;1456;51.840;12.184;2024-01-15T07:32:23;2.00;99.90
2893;DHT22;1456;51.840;12.184;2024-01-15T07:34:49;2.00;99.90
2893;DHT22;1456;51.840;12.184;2024-01-15T07:37:15;2.00;99.90
2893;DHT22;1456;51.840;12.184;2024-01-15T07:39:40;2.00;99.90
2893;DHT22;1456;51.840;12.184;2024-01-15T07:42:06;1.90;99.90
2893;DHT22;1456;51.840;12.184;2024-01-15T07:44:33;1.90;99.90
2893;DHT22;1456;51.840;12.184;2024-01-15T07:46:58;2.00;99.90
2893;DHT22;1456;51.840;12.184;2024-01-15T07:49:24;1.90;99.90
2893;DHT22;1456;51.840;12.184;2024-01-15T07:51:49;1.90;99.90
2893;DHT22;1456;51.840;12.184;2024-01-15T07:54:15;1.90;99.90
2893;DHT22;1456;51.840;12.184;2024-01-15T07:57:01;1.90;99.90
2893;DHT22;1456;51.840;12.184;2024-01-15T07:59:28;2.00;99.90
2893;DHT22;1456;51.840;12.184;2024-01-15T08:01:54;2.10;99.90
2893;DHT22;1456;51.840;12.184;2024-01-15T08:04:20;2.10;99.90
2893;DHT22;1456;51.840;12.184;2024-01-15T08:06:49;2.10;99.90
2893;DHT22;1456;51.840;12.184;2024-01-15T08:09:15;2.10;99.90
2893;DHT22;1456;51.840;12.184;2024-01-15T08:11:41;2.20;99.90
2893;DHT22;1456;51.840;12.184;2024-01-15T08:14:08;2.30;99.90
2893;DHT22;1456;51.840;12.184;2024-01-15T08:16:34;2.30;99.90
2893;DHT22;1456;51.840;12.184;2024-01-15T08:19:00;2.40;99.90
2893;DHT22;1456;51.840;12.184;2024-01-15T08:21:25;2.40;99.90
2893;DHT22;1456;51.840;12.184;2024-01-15T08:23:53;2.40;99.90
2893;DHT22;1456;51.840;12.184;2024-01-15T08:26:19;2.40;99.90
2893;DHT22;1456;51.840;12.184;2024-01-15T08:28:45;2.40;99.90
2893;DHT22;1456;51.840;12.184;2024-01-15T08:31:10;2.50;99.90
2893;DHT22;1456;51.840;12.184;2024-01-15T08:33:36;2.50;99.90
2893;DHT22;1456;51.840;12.184;2024-01-15T08:36:01;2.60;99.90
2893;DHT22;1456;51.840;12.184;2024-01-15T08:38:27;2.70;99.90
2893;DHT22;1456;51.840;12.184;2024-01-15T08:40:53;2.80;99.90
2893;DHT22;1456;51.840;12.184;2024-01-15T08:43:22;3.00;99.90
2893;DHT22;1456;51.840;12.184;2024-01-15T08:45:47;3.20;99.90
2893;DHT22;1456;51.840;12.184;2024-01-15T08:48:13;2.90;99.90
2893;DHT22;1456;51.840;12.184;2024-01-15T08:50:39;2.80;99.90
2893;DHT22;1456;51.840;12.184;2024-01-15T08:53:05;2.70;99.90
2893;DHT22;1456;51.840;12.184;2024-01-15T08:55:31;2.60;99.90
2893;DHT22;1456;51.840;12.184;2024-01-15T08:57:56;2.70;99.90
2893;DHT22;1456;51.840;12.184;2024-01-15T09:00:22;2.90;99.90
2893;DHT22;1456;51.840;12.184;2024-01-15T09:02:48;3.10;99.90
2893;DHT22;1456;51.840;12.184;2024-01-15T09:05:13;3.10;99.90
2893;DHT22;1456;51.840;12.184;2024-01-15T09:07:39;3.10;99.90
2893;DHT22;1456;51.840;12.184;2024-01-15T09:10:05;3.10;99.90
2893;DHT22;1456;51.840;12.184;2024-01-15T09:12:30;3.20;99.90
2893;DHT22;1456;51.840;12.184;2024-01-15T09:14:56;3.40;99.90
2893;DHT22;1456;51.840;12.184;2024-01-15T09:17:22;3.60;99.90
2893;DHT22;1456;51.840;12.184;2024-01-15T09:19:50;3.70;99.90
2893;DHT22;1456;51.840;12.184;2024-01-15T09:22:16;3.70;99.90
2893;DHT22;1456;51.840;12.184;2024-01-15T09:24:47;3.70;99.90
2893;DHT22;1456;51.840;12.184;2024-01-15T09:27:13;3.70;99.90
2893;DHT22;1456;51.840;12.184;2024-01-15T09:29:38;3.80;99.90
2893;DHT22;1456;51.840;12.184;2024-01-15T09:32:07;3.80;99.90
2893;DHT22;1456;51.840;12.184;2024-01-15T09:34:33;3.90;99.90
2893;DHT22;1456;51.840;12.184;2024-01-15T09:36:59;4.00;99.90
2893;DHT22;1456;51.840;12.184;2024-01-15T09:39:28;4.00;99.90
2893;DHT22;1456;51.840;12.184;2024-01-15T09:41:54;4.10;99.90
2893;DHT22;1456;51.840;12.184;2024-01-15T09:44:20;4.20;99.90
2893;DHT22;1456;51.840;12.184;2024-01-15T09:46:47;4.30;99.90
2893;DHT22;1456;51.840;12.184;2024-01-15T09:49:16;4.40;99.90
2893;DHT22;1456;51.840;12.184;2024-01-15T09:51:42;4.60;99.90
2893;DHT22;1456;51.840;12.184;2024-01-15T09:54:08;4.50;99.90
2893;DHT22;1456;51.840;12.184;2024-01-15T09:56:34;4.20;99.90
2893;DHT22;1456;51.840;12.184;2024-01-15T09:59:01;3.90;99.90
2893;DHT22;1456;51.840;12.184;2024-01-15T10:01:28;3.70;99.90
2893;DHT22;1456;51.840;12.184;2024-01-15T10:03:54;3.70;99.90
2893;DHT22;1456;51.840;12.184;2024-01-15T10:06:21;3.80;99.90
2893;DHT22;1456;51.840;12.184;2024-01-15T10:08:49;3.80;99.90
2893;DHT22;1456;51.840;12.184;2024-01-15T10:11:15;3.60;99.90
2893;DHT22;1456;51.840;12.184;2024-01-15T10:13:45;3.50;99.90
2893;DHT22;1456;51.840;12.184;2024-01-15T10:16:10;3.30;99.90
2893;DHT22;1456;51.840;12.184;2024-01-15T10:18:36;3.30;99.90
2893;DHT22;1456;51.840;12.184;2024-01-15T10:21:03;3.30;99.90
2893;DHT22;1456;51.840;12.184;2024-01-15T10:23:31;3.30;99.90
2893;DHT22;1456;51.840;12.184;2024-01-15T10:25:57;3.30;99.90
2893;DHT22;1456;51.840;12.184;2024-01-15T10:28:26;3.40;99.90
2893;DHT22;1456;51.840;12.184;2024-01-15T10:30:56;3.60;99.90
2893;DHT22;1456;51.840;12.184;2024-01-15T10:33:23;3.70;99.90
2893;DHT22;1456;51.840;12.184;2024-01-15T10:35:54;3.80;99.90
2893;DHT22;1456;51.840;12.184;2024-01-15T10:38:21;3.80;99.90
2893;DHT22;1456;51.840;12.184;2024-01-15T10:40:54;3.90;99.90
2893;DHT22;1456;51.840;12.184;2024-01-15T10:43:20;4.00;99.90
2893;DHT22;1456;51.840;12.184;2024-01-15T10:45:50;4.10;99.90
2893;DHT22;1456;51.840;12.184;2024-01-15T10:48:18;4.00;99.90
2893;DHT22;1456;51.840;12.184;2024-01-15T10:50:45;3.90;99.90
2893;DHT22;1456;51.840;12.184;2024-01-15T10:53:16;3.90;99.90
2893;DHT22;1456;51.840;12.184;2024-01-15T10:55:42;3.70;99.90
2893;DHT22;1456;51.840;12.184;2024-01-15T10:58:09;3.70;99.90
2893;DHT22;1456;51.840;12.184;2024-01-15T11:00:35;3.70;99.90
2893;DHT22;1456;51.840;12.184;2024-01-15T11:03:03;3.70;99.90
2893;DHT22;1456;51.840;12.184;2024-01-15T11:05:36;3.70;99.90
2893;DHT22;1456;51.840;12.184;2024-01-15T11:08:06;3.70;99.90
2893;DHT22;1456;51.840;12.184;2024-01-15T11:13:52;4.00;99.90
2893;DHT22;1456;51.840;12.184;2024-01-15T11:16:01;4.00;99.90
2893;DHT22;1456;51.840;12.184;2024-01-15T11:18:29;4.10;99.90
2893;DHT22;1456;51.840;12.184;2024-01-15T11:26:30;3.40;99.90
2893;DHT22;1456;51.840;12.184;2024-01-15T11:28:58;3.20;99.90
2893;DHT22;1456;51.840;12.184;2024-01-15T11:34:10;3.20;99.90
2893;DHT22;1456;51.840;12.184;2024-01-15T11:37:12;3.30;99.90
2893;DHT22;1456;51.840;12.184;2024-01-15T11:39:42;3.40;99.90
2893;DHT22;1456;51.840;12.184;2024-01-15T11:42:12;3.60;99.90
2893;DHT22;1456;51.840;12.184;2024-01-15T11:44:38;3.90;99.90
2893;DHT22;1456;51.840;12.184;2024-01-15T11:47:05;4.10;99.90
2893;DHT22;1456;51.840;12.184;2024-01-15T11:52:11;4.20;99.90
2893;DHT22;1456;51.840;12.184;2024-01-15T11:54:38;4.30;99.90
2893;DHT22;1456;51.840;12.184;2024-01-15T11:57:10;4.30;99.90
2893;DHT22;1456;51.840;12.184;2024-01-15T11:59:39;4.40;99.90
2893;DHT22;1456;51.840;12.184;2024-01-15T12:02:06;4.50;99.90
2893;DHT22;1456;51.840;12.184;2024-01-15T12:04:33;4.40;99.90
2893;DHT22;1456;51.840;12.184;2024-01-15T12:06:59;4.30;99.90
2893;DHT22;1456;51.840;12.184;2024-01-15T12:09:24;4.40;99.90
2893;DHT22;1456;51.840;12.184;2024-01-15T12:12:09;4.30;99.90
2893;DHT22;1456;51.840;12.184;2024-01-15T12:14:38;4.20;99.90
2893;DHT22;1456;51.840;12.184;2024-01-15T12:17:04;4.30;99.90
2893;DHT22;1456;51.840;12.184;2024-01-15T12:19:30;4.20;99.90
2893;DHT22;1456;51.840;12.184;2024-01-15T12:21:56;4.10;99.90
2893;DHT22;1456;51.840;12.184;2024-01-15T12:24:22;4.10;99.90
2893;DHT22;1456;51.840;12.184;2024-01-15T12:26:47;4.30;99.90
2893;DHT22;1456;51.840;12.184;2024-01-15T12:29:13;4.40;99.90
2893;DHT22;1456;51.840;12.184;2024-01-15T12:31:39;4.40;99.90
2893;DHT22;1456;51.840;12.184;2024-01-15T12:34:04;4.40;99.90
2893;DHT22;1456;51.840;12.184;2024-01-15T12:36:31;4.30;99.90
2893;DHT22;1456;51.840;12.184;2024-01-15T12:39:00;4.30;99.90
2893;DHT22;1456;51.840;12.184;2024-01-15T12:41:26;4.20;99.90
2893;DHT22;1456;51.840;12.184;2024-01-15T12:43:51;4.30;99.90
2893;DHT22;1456;51.840;12.184;2024-01-15T12:46:17;4.40;99.90
2893;DHT22;1456;51.840;12.184;2024-01-15T12:48:45;4.50;99.90
2893;DHT22;1456;51.840;12.184;2024-01-15T12:51:10;4.40;99.90
2893;DHT22;1456;51.840;12.184;2024-01-15T12:53:36;4.40;99.90
2893;DHT22;1456;51.840;12.184;2024-01-15T12:56:02;4.40;99.90
2893;DHT22;1456;51.840;12.184;2024-01-15T12:58:27;4.40;99.90
2893;DHT22;1456;51.840;12.184;2024-01-15T13:00:53;4.40;99.90
2893;DHT22;1456;51.840;12.184;2024-01-15T13:03:19;4.40;99.90
2893;DHT22;1456;51.840;12.184;2024-01-15T13:05:44;4.50;99.90
2893;DHT22;1456;51.840;12.184;2024-01-15T13:08:10;4.40;99.90
2893;DHT22;1456;51.840;12.184;2024-01-15T13:10:36;4.30;99.90
2893;DHT22;1456;51.840;12.184;2024-01-15T13:13:02;4.20;99.90
2893;DHT22;1456;51.840;12.184;2024-01-15T13:15:27;4.10;99.90
2893;DHT22;1456;51.840;12.184;2024-01-15T13:17:53;4.20;99.90
2893;DHT22;1456;51.840;12.184;2024-01-15T13:20:19;4.10;99.90
2893;DHT22;1456;51.840;12.184;2024-01-15T13:22:45;4.20;99.90
2893;DHT22;1456;51.840;12.184;2024-01-15T13:25:11;4.30;99.90
2893;DHT22;1456;51.840;12.184;2024-01-15T13:27:37;4.30;99.90
2893;DHT22;1456;51.840;12.184;2024-01-15T13:30:03;4.50;99.90
2893;DHT22;1456;51.840;12.184;2024-01-15T13:32:29;4.60;99.90
2893;DHT22;1456;51.840;12.184;2024-01-15T13:34:56;4.60;99.90
2893;DHT22;1456;51.840;12.184;2024-01-15T13:37:22;4.50;99.90
2893;DHT22;1456;51.840;12.184;2024-01-15T13:39:50;4.40;99.90
2893;DHT22;1456;51.840;12.184;2024-01-15T13:42:17;4.40;99.90
2893;DHT22;1456;51.840;12.184;2024-01-15T13:44:43;4.50;99.90
2893;DHT22;1456;51.840;12.184;2024-01-15T13:47:08;4.60;99.90
2893;DHT22;1456;51.840;12.184;2024-01-15T13:49:34;4.30;99.90
2893;DHT22;1456;51.840;12.184;2024-01-15T13:52:02;4.10;99.90
2893;DHT22;1456;51.840;12.184;2024-01-15T13:54:29;3.90;99.90
2893;DHT22;1456;51.840;12.184;2024-01-15T13:56:55;3.80;99.90
2893;DHT22;1456;51.840;12.184;2024-01-15T13:59:21;3.60;99.90
2893;DHT22;1456;51.840;12.184;2024-01-15T14:01:47;3.50;99.90
2893;DHT22;1456;51.840;12.184;2024-01-15T14:04:13;3.50;99.90
2893;DHT22;1456;51.840;12.184;2024-01-15T14:06:38;3.40;99.90
2893;DHT22;1456;51.840;12.184;2024-01-15T14:09:04;3.40;99.90
2893;DHT22;1456;51.840;12.184;2024-01-15T14:11:30;3.40;99.90
2893;DHT22;1456;51.840;12.184;2024-01-15T14:13:56;3.40;99.90
2893;DHT22;1456;51.840;12.184;2024-01-15T14:16:22;3.30;99.90
2893;DHT22;1456;51.840;12.184;2024-01-15T14:18:48;3.30;99.90
2893;DHT22;1456;51.840;12.184;2024-01-15T14:21:13;3.20;99.90
2893;DHT22;1456;51.840;12.184;2024-01-15T14:23:40;3.20;99.90
2893;DHT22;1456;51.840;12.184;2024-01-15T14:26:06;3.10;99.90
2893;DHT22;1456;51.840;12.184;2024-01-15T14:28:31;3.10;99.90
2893;DHT22;1456;51.840;12.184;2024-01-15T14:30:57;3.10;99.90
2893;DHT22;1456;51.840;12.184;2024-01-15T14:33:26;3.10;99.90
2893;DHT22;1456;51.840;12.184;2024-01-15T14:35:52;3.10;99.90
2893;DHT22;1456;51.840;12.184;2024-01-15T14:38:18;2.90;99.90
2893;DHT22;1456;51.840;12.184;2024-01-15T14:40:44;3.00;99.90
2893;DHT22;1456;51.840;12.184;2024-01-15T14:43:10;3.00;99.90
2893;DHT22;1456;51.840;12.184;2024-01-15T14:45:36;3.00;99.90
2893;DHT22;1456;51.840;12.184;2024-01-15T14:48:02;3.00;99.90
2893;DHT22;1456;51.840;12.184;2024-01-15T14:50:27;3.00;99.90
2893;DHT22;1456;51.840;12.184;2024-01-15T14:52:53;3.00;99.90
2893;DHT22;1456;51.840;12.184;2024-01-15T14:55:19;3.00;99.90
2893;DHT22;1456;51.840;12.184;2024-01-15T14:57:45;3.00;99.90
2893;DHT22;1456;51.840;12.184;2024-01-15T15:00:11;3.00;99.90
2893;DHT22;1456;51.840;12.184;2024-01-15T15:02:38;3.00;99.90
2893;DHT22;1456;51.840;12.184;2024-01-15T15:05:04;2.90;99.90
2893;DHT22;1456;51.840;12.184;2024-01-15T15:07:30;2.90;99.90
2893;DHT22;1456;51.840;12.184;2024-01-15T15:09:56;2.90;99.90
2893;DHT22;1456;51.840;12.184;2024-01-15T15:12:22;2.90;99.90
2893;DHT22;1456;51.840;12.184;2024-01-15T15:14:47;2.90;99.90
2893;DHT22;1456;51.840;12.184;2024-01-15T15:17:13;2.90;99.90
2893;DHT22;1456;51.840;12.184;2024-01-15T15:19:39;2.80;99.90
2893;DHT22;1456;51.840;12.184;2024-01-15T15:22:06;2.80;99.90
2893;DHT22;1456;51.840;12.184;2024-01-15T15:24:36;2.80;99.90
2893;DHT22;1456;51.840;12.184;2024-01-15T15:27:02;2.70;99.90
2893;DHT22;1456;51.840;12.184;2024-01-15T15:29:28;2.70;99.90
2893;DHT22;1456;51.840;12.184;2024-01-15T15:31:54;2.70;99.90
2893;DHT22;1456;51.840;12.184;2024-01-15T15:34:19;2.70;99.90
2893;DHT22;1456;51.840;12.184;2024-01-15T15:36:45;2.70;99.90
2893;DHT22;1456;51.840;12.184;2024-01-15T15:39:11;2.70;99.90
2893;DHT22;1456;51.840;12.184;2024-01-15T15:41:36;2.70;99.90
2893;DHT22;1456;51.840;12.184;2024-01-15T15:44:03;2.70;99.90
2893;DHT22;1456;51.840;12.184;2024-01-15T15:46:29;2.80;99.90
2893;DHT22;1456;51.840;12.184;2024-01-15T15:48:54;2.70;99.90
2893;DHT22;1456;51.840;12.184;2024-01-15T15:51:20;2.60;99.90
2893;DHT22;1456;51.840;12.184;2024-01-15T15:53:46;2.60;99.90
2893;DHT22;1456;51.840;12.184;2024-01-15T15:56:12;2.60;99.90
2893;DHT22;1456;51.840;12.184;2024-01-15T15:58:37;2.70;99.90
2893;DHT22;1456;51.840;12.184;2024-01-15T16:01:03;2.60;99.90
2893;DHT22;1456;51.840;12.184;2024-01-15T16:03:29;2.60;99.90
2893;DHT22;1456;51.840;12.184;2024-01-15T16:05:54;2.60;99.90
2893;DHT22;1456;51.840;12.184;2024-01-15T16:08:20;2.60;99.90
2893;DHT22;1456;51.840;12.184;2024-01-15T16:10:46;2.60;99.90